sensor_id;sensor_type;location;lat;lon;timestamp;pressure;altitude;pressure_sealevel;temperature;humidity
5138;BME280;53959;53.626;11.410;2023-03-07T00:02:07;99105.25;;;0.72;69.81
5138;BME280;53959;53.626;11.410;2023-03-07T00:04:32;99100.81;;;0.78;69.67
5138;BME280;53959;53.626;11.410;2023-03-07T00:06:58;99094.69;;;0.79;69.83
5138;BME280;53959;53.626;11.410;2023-03-07T00:09:23;99099.94;;;0.77;69.52
5138;BME280;53959;53.626;11.410;2023-03-07T00:11:48;99088.59;;;0.78;69.68
5138;BME280;53959;53.626;11.410;2023-03-07T00:14:14;99085.09;;;0.81;69.38
5138;BME280;53959;53.626;11.410;2023-03-07T00:16:39;99071.09;;;0.86;69.41
5138;BME280;53959;53.626;11.410;2023-03-07T00:19:05;99069.41;;;0.81;69.69
5138;BME280;53959;53.626;11.410;2023-03-07T00:21:32;99062.34;;;0.89;69.88
5138;BME280;53959;53.626;11.410;2023-03-07T00:23:58;99059.63;;;0.98;69.66
5138;BME280;53959;53.626;11.410;2023-03-07T00:26:24;99057.09;;;0.92;69.94
5138;BME280;53959;53.626;11.410;2023-03-07T00:28:51;99047.47;;;0.95;70.15
5138;BME280;53959;53.626;11.410;2023-03-07T00:31:18;99044.94;;;0.88;71.38
5138;BME280;53959;53.626;11.410;2023-03-07T00:33:43;99037.94;;;0.91;71.83
5138;BME280;53959;53.626;11.410;2023-03-07T00:36:18;99033.75;;;0.77;72.67
5138;BME280;53959;53.626;11.410;2023-03-07T00:38:44;99018.84;;;0.85;73.48
5138;BME280;53959;53.626;11.410;2023-03-07T00:41:12;99020.69;;;0.77;74.30
5138;BME280;53959;53.626;11.410;2023-03-07T00:43:38;99015.59;;;0.66;75.33
5138;BME280;53959;53.626;11.410;2023-03-07T00:46:05;99007.06;;;0.53;76.88
5138;BME280;53959;53.626;11.410;2023-03-07T00:48:36;98998.47;;;0.40;78.48
5138;BME280;53959;53.626;11.410;2023-03-07T00:51:02;98981.13;;;0.36;79.29
5138;BME280;53959;53.626;11.410;2023-03-07T00:53:29;98971.72;;;0.23;80.87
5138;BME280;53959;53.626;11.410;2023-03-07T00:56:06;98964.66;;;0.30;81.02
5138;BME280;53959;53.626;11.410;2023-03-07T00:58:34;98963.88;;;0.21;81.07
5138;BME280;53959;53.626;11.410;2023-03-07T01:01:01;98949.16;;;0.14;81.68
5138;BME280;53959;53.626;11.410;2023-03-07T01:03:27;98937.03;;;0.09;82.01
5138;BME280;53959;53.626;11.410;2023-03-07T01:05:53;98939.72;;;0.04;82.33
5138;BME280;53959;53.626;11.410;2023-03-07T01:08:20;98934.50;;;0.03;82.30
5138;BME280;53959;53.626;11.410;2023-03-07T01:10:46;98926.69;;;0.01;82.25
5138;BME280;53959;53.626;11.410;2023-03-07T01:13:14;98911.03;;;0.01;82.57
5138;BME280;53959;53.626;11.410;2023-03-07T01:15:39;98899.66;;;0.04;82.90
5138;BME280;53959;53.626;11.410;2023-03-07T01:18:06;98899.66;;;0.04;82.59
5138;BME280;53959;53.626;11.410;2023-03-07T01:20:33;98894.50;;;-0.01;82.94
5138;BME280;53959;53.626;11.410;2023-03-07T01:22:59;98878.88;;;-0.04;83.45
5138;BME280;53959;53.626;11.410;2023-03-07T01:25:26;98878.00;;;0.00;83.27
5138;BME280;53959;53.626;11.410;2023-03-07T01:27:52;98870.06;;;0.08;83.00
5138;BME280;53959;53.626;11.410;2023-03-07T01:30:19;98868.31;;;0.08;83.15
5138;BME280;53959;53.626;11.410;2023-03-07T01:32:45;98855.22;;;0.11;83.34
5138;BME280;53959;53.626;11.410;2023-03-07T01:35:10;98840.47;;;0.07;82.80
5138;BME280;53959;53.626;11.410;2023-03-07T01:37:36;98837.81;;;0.10;83.20
5138;BME280;53959;53.626;11.410;2023-03-07T01:40:02;98821.28;;;0.11;83.36
5138;BME280;53959;53.626;11.410;2023-03-07T01:42:30;98821.28;;;0.11;83.72
5138;BME280;53959;53.626;11.410;2023-03-07T01:47:24;98798.63;;;0.13;83.54
5138;BME280;53959;53.626;11.410;2023-03-07T01:49:52;98796.91;;;0.11;83.80
5138;BME280;53959;53.626;11.410;2023-03-07T01:52:24;98787.31;;;0.14;83.79
5138;BME280;53959;53.626;11.410;2023-03-07T01:55:10;98782.16;;;0.10;84.00
5138;BME280;53959;53.626;11.410;2023-03-07T01:57:39;98770.72;;;0.18;84.07
5138;BME280;53959;53.626;11.410;2023-03-07T02:00:08;98765.50;;;0.18;84.08
5138;BME280;53959;53.626;11.410;2023-03-07T02:02:44;98754.28;;;0.12;84.06
5138;BME280;53959;53.626;11.410;2023-03-07T02:05:26;98762.09;;;0.13;84.13
5138;BME280;53959;53.626;11.410;2023-03-07T02:07:54;98752.63;;;0.08;84.14
5138;BME280;53959;53.626;11.410;2023-03-07T02:10:24;98747.28;;;0.14;84.48
5138;BME280;53959;53.626;11.410;2023-03-07T02:12:52;98742.22;;;0.05;84.35
5138;BME280;53959;53.626;11.410;2023-03-07T02:15:18;98736.00;;;0.13;84.55
5138;BME280;53959;53.626;11.410;2023-03-07T02:17:44;98732.53;;;0.11;84.69
5138;BME280;53959;53.626;11.410;2023-03-07T02:22:43;98712.56;;;0.07;85.01
5138;BME280;53959;53.626;11.410;2023-03-07T02:27:48;98703.84;;;0.10;85.29
5138;BME280;53959;53.626;11.410;2023-03-07T02:30:16;98692.63;;;0.05;85.94
5138;BME280;53959;53.626;11.410;2023-03-07T02:32:41;98687.38;;;0.08;86.12
5138;BME280;53959;53.626;11.410;2023-03-07T02:35:23;98682.09;;;0.09;85.89
5138;BME280;53959;53.626;11.410;2023-03-07T02:37:55;98670.88;;;0.04;85.83
5138;BME280;53959;53.626;11.410;2023-03-07T02:40:23;98669.03;;;0.11;85.76
5138;BME280;53959;53.626;11.410;2023-03-07T02:42:53;98665.56;;;0.10;86.10
5138;BME280;53959;53.626;11.410;2023-03-07T02:45:20;98659.50;;;0.08;86.28
5138;BME280;53959;53.626;11.410;2023-03-07T02:47:45;98654.25;;;0.10;85.88
5138;BME280;53959;53.626;11.410;2023-03-07T02:50:14;98649.03;;;0.10;86.13
5138;BME280;53959;53.626;11.410;2023-03-07T02:52:43;98636.88;;;0.07;85.98
5138;BME280;53959;53.626;11.410;2023-03-07T02:55:09;98645.66;;;0.03;85.94
5138;BME280;53959;53.626;11.410;2023-03-07T02:57:38;98629.06;;;0.09;86.19
5138;BME280;53959;53.626;11.410;2023-03-07T03:00:05;98616.91;;;0.06;86.29
5138;BME280;53959;53.626;11.410;2023-03-07T03:02:33;98621.22;;;0.09;85.83
5138;BME280;53959;53.626;11.410;2023-03-07T03:04:58;98608.13;;;0.10;85.72
5138;BME280;53959;53.626;11.410;2023-03-07T03:07:23;98624.69;;;0.09;85.89
5138;BME280;53959;53.626;11.410;2023-03-07T03:09:49;98615.91;;;0.13;86.34
5138;BME280;53959;53.626;11.410;2023-03-07T03:12:14;98611.63;;;0.09;86.32
5138;BME280;53959;53.626;11.410;2023-03-07T03:14:41;98598.50;;;0.14;86.19
5138;BME280;53959;53.626;11.410;2023-03-07T03:17:06;98598.47;;;0.17;85.99
5138;BME280;53959;53.626;11.410;2023-03-07T03:19:31;98590.66;;;0.14;86.05
5138;BME280;53959;53.626;11.410;2023-03-07T03:21:57;98570.66;;;0.14;85.94
5138;BME280;53959;53.626;11.410;2023-03-07T03:24:23;98585.50;;;0.12;85.87
5138;BME280;53959;53.626;11.410;2023-03-07T03:26:50;98582.94;;;0.09;86.40
5138;BME280;53959;53.626;11.410;2023-03-07T03:29:17;98570.78;;;0.08;86.40
5138;BME280;53959;53.626;11.410;2023-03-07T03:31:43;98568.22;;;0.05;86.54
5138;BME280;53959;53.626;11.410;2023-03-07T03:34:09;98574.31;;;0.04;86.91
5138;BME280;53959;53.626;11.410;2023-03-07T03:36:34;98565.56;;;0.08;86.57
5138;BME280;53959;53.626;11.410;2023-03-07T03:39:03;98556.81;;;0.09;86.79
5138;BME280;53959;53.626;11.410;2023-03-07T03:41:31;98568.13;;;0.10;86.87
5138;BME280;53959;53.626;11.410;2023-03-07T03:43:57;98562.94;;;0.08;86.52
5138;BME280;53959;53.626;11.410;2023-03-07T03:46:23;98559.34;;;0.15;86.98
5138;BME280;53959;53.626;11.410;2023-03-07T03:48:52;98551.56;;;0.12;86.51
5138;BME280;53959;53.626;11.410;2023-03-07T03:51:18;98557.59;;;0.14;86.49
5138;BME280;53959;53.626;11.410;2023-03-07T03:53:44;98557.50;;;0.20;86.29
5138;BME280;53959;53.626;11.410;2023-03-07T03:56:12;98550.56;;;0.18;86.62
5138;BME280;53959;53.626;11.410;2023-03-07T03:58:38;98545.31;;;0.21;86.51
5138;BME280;53959;53.626;11.410;2023-03-07T04:01:05;98536.53;;;0.27;86.50
5138;BME280;53959;53.626;11.410;2023-03-07T04:03:36;98542.56;;;0.29;86.22
5138;BME280;53959;53.626;11.410;2023-03-07T04:06:07;98539.03;;;0.31;86.28
5138;BME280;53959;53.626;11.410;2023-03-07T04:08:34;98538.09;;;0.34;86.11
5138;BME280;53959;53.626;11.410;2023-03-07T04:10:59;98535.47;;;0.35;86.04
5138;BME280;53959;53.626;11.410;2023-03-07T04:13:25;98529.41;;;0.35;85.76
5138;BME280;53959;53.626;11.410;2023-03-07T04:15:51;98527.59;;;0.37;85.96
5138;BME280;53959;53.626;11.410;2023-03-07T04:18:19;98520.56;;;0.40;85.62
5138;BME280;53959;53.626;11.410;2023-03-07T04:20:46;98530.06;;;0.44;85.61
5138;BME280;53959;53.626;11.410;2023-03-07T04:23:12;98517.00;;;0.46;85.59
5138;BME280;53959;53.626;11.410;2023-03-07T04:25:37;98480.38;;;0.49;85.45
5138;BME280;53959;53.626;11.410;2023-03-07T04:28:03;98508.16;;;0.52;85.49
5138;BME280;53959;53.626;11.410;2023-03-07T04:30:28;98494.19;;;0.54;85.48
5138;BME280;53959;53.626;11.410;2023-03-07T04:32:54;98489.88;;;0.53;85.12
5138;BME280;53959;53.626;11.410;2023-03-07T04:35:19;98484.66;;;0.53;85.20
5138;BME280;53959;53.626;11.410;2023-03-07T04:37:44;98479.44;;;0.53;85.65
5138;BME280;53959;53.626;11.410;2023-03-07T04:40:10;98463.66;;;0.56;85.24
5138;BME280;53959;53.626;11.410;2023-03-07T04:42:36;98474.91;;;0.61;85.33
5138;BME280;53959;53.626;11.410;2023-03-07T04:45:01;98485.31;;;0.63;85.08
5138;BME280;53959;53.626;11.410;2023-03-07T04:47:26;98480.06;;;0.64;85.35
5138;BME280;53959;53.626;11.410;2023-03-07T04:49:52;98483.50;;;0.66;85.44
5138;BME280;53959;53.626;11.410;2023-03-07T04:52:18;98470.50;;;0.63;85.21
5138;BME280;53959;53.626;11.410;2023-03-07T04:54:43;98470.44;;;0.66;85.25
5138;BME280;53959;53.626;11.410;2023-03-07T04:57:09;98466.97;;;0.66;85.16
5138;BME280;53959;53.626;11.410;2023-03-07T04:59:35;98466.06;;;0.67;85.07
5138;BME280;53959;53.626;11.410;2023-03-07T05:02:07;98459.03;;;0.70;85.04
5138;BME280;53959;53.626;11.410;2023-03-07T05:04:36;98467.66;;;0.76;85.16
5138;BME280;53959;53.626;11.410;2023-03-07T05:07:03;98468.44;;;0.78;84.98
5138;BME280;53959;53.626;11.410;2023-03-07T05:09:28;98465.88;;;0.76;85.19
5138;BME280;53959;53.626;11.410;2023-03-07T05:11:56;98480.63;;;0.79;85.06
5138;BME280;53959;53.626;11.410;2023-03-07T05:14:21;98468.41;;;0.81;84.91
5138;BME280;53959;53.626;11.410;2023-03-07T05:16:46;98470.09;;;0.83;84.99
5138;BME280;53959;53.626;11.410;2023-03-07T05:19:12;98460.56;;;0.81;85.12
5138;BME280;53959;53.626;11.410;2023-03-07T05:21:38;98455.22;;;0.87;84.74
5138;BME280;53959;53.626;11.410;2023-03-07T05:24:06;98465.56;;;0.91;84.82
5138;BME280;53959;53.626;11.410;2023-03-07T05:26:32;98452.50;;;0.90;84.57
5138;BME280;53959;53.626;11.410;2023-03-07T05:28:57;98450.63;;;0.96;84.70
5138;BME280;53959;53.626;11.410;2023-03-07T05:31:23;98455.03;;;0.94;84.41
5138;BME280;53959;53.626;11.410;2023-03-07T05:33:48;98447.09;;;0.97;84.61
5138;BME280;53959;53.626;11.410;2023-03-07T05:36:15;98447.94;;;1.00;84.61
5138;BME280;53959;53.626;11.410;2023-03-07T05:38:40;98445.31;;;1.00;84.53
5138;BME280;53959;53.626;11.410;2023-03-07T05:41:06;98438.31;;;1.02;84.81
5138;BME280;53959;53.626;11.410;2023-03-07T05:43:32;98432.94;;;1.08;84.49
5138;BME280;53959;53.626;11.410;2023-03-07T05:45:58;98439.00;;;1.10;84.38
5138;BME280;53959;53.626;11.410;2023-03-07T05:48:23;98429.41;;;1.10;84.34
5138;BME280;53959;53.626;11.410;2023-03-07T05:50:49;98428.44;;;1.13;83.85
5138;BME280;53959;53.626;11.410;2023-03-07T05:53:16;98420.47;;;1.20;83.89
5138;BME280;53959;53.626;11.410;2023-03-07T05:55:43;98405.69;;;1.18;83.55
5138;BME280;53959;53.626;11.410;2023-03-07T05:58:08;98415.97;;;1.26;83.49
5138;BME280;53959;53.626;11.410;2023-03-07T06:00:34;98404.59;;;1.27;83.58
5138;BME280;53959;53.626;11.410;2023-03-07T06:03:03;98401.97;;;1.27;83.34
5138;BME280;53959;53.626;11.410;2023-03-07T06:05:29;98397.66;;;1.26;83.30
5138;BME280;53959;53.626;11.410;2023-03-07T06:07:55;98393.34;;;1.25;83.21
5138;BME280;53959;53.626;11.410;2023-03-07T06:10:20;98381.91;;;1.27;83.19
5138;BME280;53959;53.626;11.410;2023-03-07T06:12:50;98385.31;;;1.31;82.89
5138;BME280;53959;53.626;11.410;2023-03-07T06:15:16;98394.91;;;1.32;82.74
5138;BME280;53959;53.626;11.410;2023-03-07T06:17:41;98377.47;;;1.31;82.85
5138;BME280;53959;53.626;11.410;2023-03-07T06:20:08;98374.00;;;1.32;83.33
5138;BME280;53959;53.626;11.410;2023-03-07T06:22:34;98375.72;;;1.31;82.87
5138;BME280;53959;53.626;11.410;2023-03-07T06:25:03;98380.75;;;1.39;82.75
5138;BME280;53959;53.626;11.410;2023-03-07T06:27:34;98382.44;;;1.41;82.29
5138;BME280;53959;53.626;11.410;2023-03-07T06:30:00;98366.69;;;1.44;82.53
5138;BME280;53959;53.626;11.410;2023-03-07T06:32:29;98373.69;;;1.42;82.01
5138;BME280;53959;53.626;11.410;2023-03-07T06:34:55;98377.13;;;1.44;81.56
5138;BME280;53959;53.626;11.410;2023-03-07T06:37:20;98364.78;;;1.50;80.86
5138;BME280;53959;53.626;11.410;2023-03-07T06:39:46;98358.63;;;1.52;81.13
5138;BME280;53959;53.626;11.410;2023-03-07T06:42:11;98367.28;;;1.54;81.27
5138;BME280;53959;53.626;11.410;2023-03-07T06:44:37;98363.66;;;1.60;81.21
5138;BME280;53959;53.626;11.410;2023-03-07T06:47:03;98360.25;;;1.56;80.67
5138;BME280;53959;53.626;11.410;2023-03-07T06:49:28;98354.88;;;1.62;80.73
5138;BME280;53959;53.626;11.410;2023-03-07T06:51:54;98354.88;;;1.62;80.68
5138;BME280;53959;53.626;11.410;2023-03-07T06:54:20;98354.75;;;1.67;80.23
5138;BME280;53959;53.626;11.410;2023-03-07T06:56:45;98352.91;;;1.70;79.35
5138;BME280;53959;53.626;11.410;2023-03-07T06:59:14;98359.78;;;1.75;78.68
5138;BME280;53959;53.626;11.410;2023-03-07T07:01:40;98347.50;;;1.77;78.94
5138;BME280;53959;53.626;11.410;2023-03-07T07:04:05;98334.22;;;1.84;78.94
5138;BME280;53959;53.626;11.410;2023-03-07T07:06:30;98338.56;;;1.84;78.51
5138;BME280;53959;53.626;11.410;2023-03-07T07:08:57;98354.13;;;1.90;77.60
5138;BME280;53959;53.626;11.410;2023-03-07T07:11:25;98340.03;;;1.94;77.36
5138;BME280;53959;53.626;11.410;2023-03-07T07:13:51;98343.50;;;1.96;76.86
5138;BME280;53959;53.626;11.410;2023-03-07T07:16:18;98339.03;;;2.00;75.87
5138;BME280;53959;53.626;11.410;2023-03-07T07:18:44;98331.97;;;2.02;75.72
5138;BME280;53959;53.626;11.410;2023-03-07T07:21:10;98338.06;;;2.02;76.02
5138;BME280;53959;53.626;11.410;2023-03-07T07:23:35;98331.84;;;2.06;75.28
5138;BME280;53959;53.626;11.410;2023-03-07T07:26:02;98324.75;;;2.10;75.58
5138;BME280;53959;53.626;11.410;2023-03-07T07:28:27;98323.00;;;2.10;75.27
5138;BME280;53959;53.626;11.410;2023-03-07T07:30:53;98322.97;;;2.12;74.90
5138;BME280;53959;53.626;11.410;2023-03-07T07:33:19;98322.03;;;2.14;74.87
5138;BME280;53959;53.626;11.410;2023-03-07T07:35:47;98317.59;;;2.16;74.96
5138;BME280;53959;53.626;11.410;2023-03-07T07:38:13;98321.81;;;2.21;74.38
5138;BME280;53959;53.626;11.410;2023-03-07T07:40:39;98339.16;;;2.25;74.59
5138;BME280;53959;53.626;11.410;2023-03-07T07:43:04;98333.84;;;2.28;73.70
5138;BME280;53959;53.626;11.410;2023-03-07T07:45:36;98338.16;;;2.29;73.77
5138;BME280;53959;53.626;11.410;2023-03-07T07:48:03;98333.84;;;2.28;74.47
5138;BME280;53959;53.626;11.410;2023-03-07T07:50:28;98340.78;;;2.29;74.56
5138;BME280;53959;53.626;11.410;2023-03-07T07:52:54;98336.31;;;2.32;73.48
5138;BME280;53959;53.626;11.410;2023-03-07T07:55:20;98335.38;;;2.35;73.29
5138;BME280;53959;53.626;11.410;2023-03-07T07:57:46;98341.56;;;2.32;73.78
5138;BME280;53959;53.626;11.410;2023-03-07T08:00:12;98319.56;;;2.38;73.47
5138;BME280;53959;53.626;11.410;2023-03-07T08:02:38;98326.44;;;2.42;74.30
5138;BME280;53959;53.626;11.410;2023-03-07T08:05:07;98341.31;;;2.41;74.00
5138;BME280;53959;53.626;11.410;2023-03-07T08:07:34;98340.06;;;2.53;73.52
5138;BME280;53959;53.626;11.410;2023-03-07T08:09:59;98349.72;;;2.51;72.78
5138;BME280;53959;53.626;11.410;2023-03-07T08:12:25;98335.63;;;2.55;72.88
5138;BME280;53959;53.626;11.410;2023-03-07T08:14:50;98338.31;;;2.54;73.59
5138;BME280;53959;53.626;11.410;2023-03-07T08:17:15;98338.91;;;2.63;72.37
5138;BME280;53959;53.626;11.410;2023-03-07T08:19:41;98326.50;;;2.68;72.01
5138;BME280;53959;53.626;11.410;2023-03-07T08:22:06;98364.56;;;2.80;71.83
5138;BME280;53959;53.626;11.410;2023-03-07T08:24:31;98337.53;;;3.06;71.78
5138;BME280;53959;53.626;11.410;2023-03-07T08:26:59;98345.97;;;3.16;71.56
5138;BME280;53959;53.626;11.410;2023-03-07T08:29:24;98330.69;;;3.01;70.48
5138;BME280;53959;53.626;11.410;2023-03-07T08:31:50;98342.78;;;3.06;70.93
5138;BME280;53959;53.626;11.410;2023-03-07T08:34:17;98335.22;;;3.24;71.11
5138;BME280;53959;53.626;11.410;2023-03-07T08:36:43;98345.06;;;3.15;70.23
5138;BME280;53959;53.626;11.410;2023-03-07T08:39:08;98352.06;;;3.16;69.72
5138;BME280;53959;53.626;11.410;2023-03-07T08:41:33;98351.75;;;3.26;70.38
5138;BME280;53959;53.626;11.410;2023-03-07T08:43:59;98322.97;;;3.23;69.66
5138;BME280;53959;53.626;11.410;2023-03-07T08:46:25;98350.06;;;3.23;69.75
5138;BME280;53959;53.626;11.410;2023-03-07T08:48:50;98351.22;;;3.41;69.96
5138;BME280;53959;53.626;11.410;2023-03-07T08:51:16;98331.16;;;3.40;68.38
5138;BME280;53959;53.626;11.410;2023-03-07T08:53:43;98353.81;;;3.43;68.36
5138;BME280;53959;53.626;11.410;2023-03-07T08:56:14;98345.78;;;3.47;68.17
5138;BME280;53959;53.626;11.410;2023-03-07T08:58:40;98365.13;;;3.70;68.98
5138;BME280;53959;53.626;11.410;2023-03-07T09:01:06;98349.69;;;3.60;68.60
5138;BME280;53959;53.626;11.410;2023-03-07T09:03:33;98346.66;;;3.73;68.63
5138;BME280;53959;53.626;11.410;2023-03-07T09:05:58;98360.91;;;3.65;68.29
5138;BME280;53959;53.626;11.410;2023-03-07T09:08:23;98370.31;;;3.46;69.41
5138;BME280;53959;53.626;11.410;2023-03-07T09:10:49;98366.88;;;3.44;69.76
5138;BME280;53959;53.626;11.410;2023-03-07T09:13:14;98369.41;;;3.47;69.83
5138;BME280;53959;53.626;11.410;2023-03-07T09:15:41;98387.44;;;3.56;69.13
5138;BME280;53959;53.626;11.410;2023-03-07T09:18:07;98393.56;;;3.57;68.34
5138;BME280;53959;53.626;11.410;2023-03-07T09:20:32;98400.72;;;3.52;68.29
5138;BME280;53959;53.626;11.410;2023-03-07T09:22:58;98396.91;;;3.62;67.82
5138;BME280;53959;53.626;11.410;2023-03-07T09:25:23;98387.94;;;3.68;67.47
5138;BME280;53959;53.626;11.410;2023-03-07T09:27:49;98389.47;;;3.48;67.08
5138;BME280;53959;53.626;11.410;2023-03-07T09:30:15;98409.69;;;3.18;71.53
5138;BME280;53959;53.626;11.410;2023-03-07T09:32:40;98410.88;;;3.08;73.91
5138;BME280;53959;53.626;11.410;2023-03-07T09:35:06;98419.53;;;3.11;74.51
5138;BME280;53959;53.626;11.410;2023-03-07T09:37:31;98405.34;;;2.89;74.44
5138;BME280;53959;53.626;11.410;2023-03-07T09:39:57;98408.97;;;2.86;74.43
5138;BME280;53959;53.626;11.410;2023-03-07T09:43:07;98408.16;;;3.12;74.07
5138;BME280;53959;53.626;11.410;2023-03-07T09:45:57;98411.94;;;3.30;72.26
5138;BME280;53959;53.626;11.410;2023-03-07T09:50:57;98420.13;;;3.20;69.94
5138;BME280;53959;53.626;11.410;2023-03-07T09:53:35;98423.06;;;3.10;71.60
5138;BME280;53959;53.626;11.410;2023-03-07T09:56:05;98435.88;;;2.91;72.77
5138;BME280;53959;53.626;11.410;2023-03-07T09:58:36;98432.56;;;2.86;74.52
5138;BME280;53959;53.626;11.410;2023-03-07T10:01:03;98416.28;;;2.75;74.97
5138;BME280;53959;53.626;11.410;2023-03-07T10:03:40;98418.09;;;2.73;75.28
5138;BME280;53959;53.626;11.410;2023-03-07T10:06:14;98427.31;;;2.86;75.69
5138;BME280;53959;53.626;11.410;2023-03-07T10:08:40;98417.88;;;3.09;74.83
5138;BME280;53959;53.626;11.410;2023-03-07T10:11:27;98410.13;;;3.04;73.57
5138;BME280;53959;53.626;11.410;2023-03-07T10:16:49;98412.69;;;3.34;72.10
5138;BME280;53959;53.626;11.410;2023-03-07T10:19:30;98404.47;;;3.45;71.99
5138;BME280;53959;53.626;11.410;2023-03-07T10:24:37;98421.91;;;3.46;70.28
5138;BME280;53959;53.626;11.410;2023-03-07T10:27:09;98411.78;;;3.61;71.07
5138;BME280;53959;53.626;11.410;2023-03-07T10:29:49;98415.56;;;3.26;71.05
5138;BME280;53959;53.626;11.410;2023-03-07T10:32:42;98434.25;;;3.15;72.06
5138;BME280;53959;53.626;11.410;2023-03-07T10:37:49;98437.88;;;2.54;75.96
5138;BME280;53959;53.626;11.410;2023-03-07T10:42:49;98465.22;;;2.12;78.89
5138;BME280;53959;53.626;11.410;2023-03-07T10:45:15;98473.56;;;1.94;80.05
5138;BME280;53959;53.626;11.410;2023-03-07T10:47:40;98451.56;;;1.67;80.08
5138;BME280;53959;53.626;11.410;2023-03-07T10:50:16;98447.03;;;1.38;79.04
5138;BME280;53959;53.626;11.410;2023-03-07T10:52:51;98451.16;;;1.48;78.63
5138;BME280;53959;53.626;11.410;2023-03-07T10:57:54;98453.16;;;1.73;77.84
5138;BME280;53959;53.626;11.410;2023-03-07T11:00:19;98458.09;;;1.85;78.06
5138;BME280;53959;53.626;11.410;2023-03-07T11:02:45;98454.50;;;1.87;77.76
5138;BME280;53959;53.626;11.410;2023-03-07T11:07:48;98466.22;;;2.07;76.65
5138;BME280;53959;53.626;11.410;2023-03-07T11:10:30;98472.00;;;2.19;77.09
5138;BME280;53959;53.626;11.410;2023-03-07T11:12:56;98454.25;;;2.31;76.68
5138;BME280;53959;53.626;11.410;2023-03-07T11:15:22;98464.75;;;2.29;75.57
5138;BME280;53959;53.626;11.410;2023-03-07T11:17:50;98459.44;;;2.63;75.99
5138;BME280;53959;53.626;11.410;2023-03-07T11:20:23;98464.72;;;2.62;75.72
5138;BME280;53959;53.626;11.410;2023-03-07T11:22:49;98464.81;;;2.88;74.90
5138;BME280;53959;53.626;11.410;2023-03-07T11:25:19;98479.59;;;2.91;74.61
5138;BME280;53959;53.626;11.410;2023-03-07T11:27:54;98472.53;;;2.93;74.41
5138;BME280;53959;53.626;11.410;2023-03-07T11:30:22;98475.22;;;3.20;73.89
5138;BME280;53959;53.626;11.410;2023-03-07T11:35:25;98476.56;;;3.05;72.42
5138;BME280;53959;53.626;11.410;2023-03-07T11:37:58;98475.44;;;3.12;72.50
5138;BME280;53959;53.626;11.410;2023-03-07T11:40:33;98488.72;;;2.78;72.59
5138;BME280;53959;53.626;11.410;2023-03-07T11:43:25;98486.84;;;2.83;73.21
5138;BME280;53959;53.626;11.410;2023-03-07T11:46:04;98492.25;;;2.77;73.35
5138;BME280;53959;53.626;11.410;2023-03-07T11:51:39;98483.53;;;2.76;73.01
5138;BME280;53959;53.626;11.410;2023-03-07T11:54:31;98486.09;;;2.78;72.63
5138;BME280;53959;53.626;11.410;2023-03-07T12:00:16;98495.56;;;3.11;72.47
5138;BME280;53959;53.626;11.410;2023-03-07T12:03:06;98468.09;;;2.95;70.04
5138;BME280;53959;53.626;11.410;2023-03-07T12:05:54;98494.03;;;3.04;70.00
5138;BME280;53959;53.626;11.410;2023-03-07T12:08:36;98465.63;;;3.19;69.25
5138;BME280;53959;53.626;11.410;2023-03-07T12:11:33;98476.72;;;3.28;68.63
5138;BME280;53959;53.626;11.410;2023-03-07T12:14:28;98487.91;;;3.61;66.91
5138;BME280;53959;53.626;11.410;2023-03-07T12:17:14;98477.25;;;3.66;66.84
5138;BME280;53959;53.626;11.410;2023-03-07T12:23:01;98475.84;;;3.56;66.37
5138;BME280;53959;53.626;11.410;2023-03-07T12:25:37;98477.78;;;3.49;65.91
5138;BME280;53959;53.626;11.410;2023-03-07T12:30:53;98482.94;;;3.52;66.75
5138;BME280;53959;53.626;11.410;2023-03-07T12:41:56;98481.38;;;3.47;65.97
5138;BME280;53959;53.626;11.410;2023-03-07T12:44:40;98480.53;;;3.46;64.02
5138;BME280;53959;53.626;11.410;2023-03-07T12:47:31;98492.94;;;3.68;62.54
5138;BME280;53959;53.626;11.410;2023-03-07T12:53:10;98494.59;;;4.23;61.97
5138;BME280;53959;53.626;11.410;2023-03-07T12:55:45;98510.94;;;4.31;60.42
5138;BME280;53959;53.626;11.410;2023-03-07T13:01:19;98504.38;;;4.43;59.04
5138;BME280;53959;53.626;11.410;2023-03-07T13:04:05;98506.16;;;4.43;57.78
5138;BME280;53959;53.626;11.410;2023-03-07T13:06:32;98510.56;;;4.67;56.01
5138;BME280;53959;53.626;11.410;2023-03-07T13:08:59;98525.69;;;4.60;51.83
5138;BME280;53959;53.626;11.410;2023-03-07T13:11:28;98521.22;;;4.62;50.69
5138;BME280;53959;53.626;11.410;2023-03-07T13:13:57;98504.22;;;4.73;47.82
5138;BME280;53959;53.626;11.410;2023-03-07T13:24:47;98528.50;;;6.56;44.02
5138;BME280;53959;53.626;11.410;2023-03-07T13:35:51;98527.78;;;6.73;44.46
5138;BME280;53959;53.626;11.410;2023-03-07T13:45:47;98540.88;;;7.14;39.83
5138;BME280;53959;53.626;11.410;2023-03-07T13:56:23;98536.84;;;5.83;42.08
5138;BME280;53959;53.626;11.410;2023-03-07T14:01:18;98545.03;;;5.53;42.45
5138;BME280;53959;53.626;11.410;2023-03-07T14:03:49;98558.44;;;5.24;43.09
5138;BME280;53959;53.626;11.410;2023-03-07T14:06:30;98544.72;;;5.16;43.71
5138;BME280;53959;53.626;11.410;2023-03-07T14:08:58;98553.94;;;5.27;43.66
5138;BME280;53959;53.626;11.410;2023-03-07T14:19:52;98560.81;;;4.83;44.47
5138;BME280;53959;53.626;11.410;2023-03-07T14:25:20;98569.19;;;4.94;43.72
5138;BME280;53959;53.626;11.410;2023-03-07T14:28:01;98580.28;;;5.02;45.10
5138;BME280;53959;53.626;11.410;2023-03-07T14:30:30;98561.00;;;5.02;45.63
5138;BME280;53959;53.626;11.410;2023-03-07T14:32:56;98577.91;;;5.20;45.15
5138;BME280;53959;53.626;11.410;2023-03-07T14:35:36;98565.53;;;4.98;44.74
5138;BME280;53959;53.626;11.410;2023-03-07T14:38:08;98567.38;;;5.20;44.38
5138;BME280;53959;53.626;11.410;2023-03-07T14:40:49;98560.50;;;5.16;44.49
5138;BME280;53959;53.626;11.410;2023-03-07T14:43:44;98564.50;;;5.02;45.00
5138;BME280;53959;53.626;11.410;2023-03-07T14:46:44;98583.84;;;5.01;43.56
5138;BME280;53959;53.626;11.410;2023-03-07T14:49:45;98567.31;;;4.98;44.73
5138;BME280;53959;53.626;11.410;2023-03-07T14:52:15;98575.16;;;4.74;45.23
5138;BME280;53959;53.626;11.410;2023-03-07T14:54:43;98568.72;;;4.83;45.07
5138;BME280;53959;53.626;11.410;2023-03-07T14:57:20;98591.34;;;4.87;44.94
5138;BME280;53959;53.626;11.410;2023-03-07T15:00:13;98580.16;;;4.82;45.12
5138;BME280;53959;53.626;11.410;2023-03-07T15:02:56;98576.97;;;4.72;43.82